createdAt,value
2023-05-04T00:02:54.278Z,41.08
2023-05-04T00:07:59.452Z,29.67
2023-05-04T00:13:04.858Z,29.10
2023-05-04T00:18:13.147Z,32.35
2023-05-04T00:23:18.502Z,21.98
2023-05-04T00:28:23.883Z,42.40
2023-05-04T00:33:29.238Z,24.85
2023-05-04T00:38:57.688Z,24.30
2023-05-04T00:44:05.636Z,27.73
2023-05-04T00:49:11.086Z,27.70
2023-05-04T00:59:24.955Z,32.13
2023-05-04T01:04:30.926Z,36.67
2023-05-04T01:09:53.882Z,32.95
2023-05-04T01:15:00.562Z,39.30
2023-05-04T01:20:07.686Z,32.15
2023-05-04T01:25:13.634Z,34.30
2023-05-04T01:30:42.371Z,28.80
2023-05-04T01:35:48.566Z,35.38
2023-05-04T01:40:55.125Z,31.33
2023-05-04T01:46:01.731Z,30.95
2023-05-04T01:51:07.438Z,38.27
2023-05-04T01:56:12.832Z,41.28
2023-05-04T02:01:18.254Z,27.50
2023-05-04T02:06:24.087Z,32.53
2023-05-04T02:16:34.676Z,35.05
2023-05-04T02:21:40.075Z,24.03
2023-05-04T02:26:46.029Z,38.65
2023-05-04T02:36:55.976Z,24.38
2023-05-04T02:42:01.223Z,39.47
2023-05-04T02:47:07.327Z,35.55
2023-05-04T02:52:12.434Z,29.98
2023-05-04T02:57:17.675Z,27.07
2023-05-04T03:02:23.498Z,34.50
2023-05-04T03:07:30.405Z,40.35
2023-05-04T03:12:36.078Z,31.20
2023-05-04T03:17:41.599Z,24.67
2023-05-04T03:22:47.969Z,20.05
2023-05-04T03:27:54.101Z,28.98
2023-05-04T03:32:59.593Z,38.80
2023-05-04T03:38:08.715Z,41.42
2023-05-04T03:43:14.192Z,38.55
2023-05-04T03:48:19.966Z,38.90
2023-05-04T03:53:27.119Z,39.88
2023-05-04T03:58:32.458Z,43.00
2023-05-04T04:03:41.098Z,45.78
2023-05-04T04:08:47.094Z,43.63
2023-05-04T04:13:52.535Z,38.83
2023-05-04T04:18:57.778Z,28.85
2023-05-04T04:24:02.925Z,46.93
2023-05-04T04:29:08.122Z,39.80
2023-05-04T04:34:13.687Z,38.17
2023-05-04T04:39:18.817Z,35.40
2023-05-04T04:44:24.230Z,38.83
2023-05-04T04:49:29.640Z,43.42
2023-05-04T04:54:35.332Z,41.22
2023-05-04T04:59:40.605Z,41.45
2023-05-04T05:04:45.733Z,42.30
2023-05-04T05:09:51.112Z,41.38
2023-05-04T05:14:56.446Z,41.50
2023-05-04T05:20:01.954Z,45.75
2023-05-04T05:25:09.899Z,41.55
2023-05-04T05:30:16.161Z,41.55
2023-05-04T05:35:22.545Z,45.42
2023-05-04T05:40:28.001Z,51.05
2023-05-04T05:45:33.200Z,36.25
2023-05-04T05:50:38.627Z,47.60
2023-05-04T05:55:44.284Z,40.50
2023-05-04T06:00:49.703Z,49.53
2023-05-04T06:05:54.742Z,41.05
2023-05-04T06:11:00.555Z,48.03
2023-05-04T06:21:11.316Z,43.25
2023-05-04T06:31:21.340Z,40.83
2023-05-04T06:36:29.663Z,43.15
2023-05-04T06:41:35.067Z,32.50
2023-05-04T06:46:41.234Z,33.40
2023-05-04T06:51:47.342Z,29.92
2023-05-04T06:56:53.002Z,29.40
2023-05-04T07:01:58.312Z,34.67
2023-05-04T07:07:06.600Z,29.88
2023-05-04T07:12:12.309Z,45.83
2023-05-04T07:17:21.268Z,36.00
2023-05-04T07:22:26.679Z,36.28
2023-05-04T07:27:32.086Z,31.13
2023-05-04T07:37:42.406Z,31.13
2023-05-04T07:47:56.099Z,34.83
2023-05-04T07:53:01.506Z,39.22
2023-05-04T08:03:41.063Z,31.20
2023-05-04T08:08:47.048Z,30.60
2023-05-04T08:13:52.440Z,30.13
2023-05-04T08:19:02.527Z,39.10
2023-05-04T08:24:08.516Z,36.40
2023-05-04T08:29:13.906Z,35.20
2023-05-04T08:34:19.556Z,37.95
2023-05-04T08:39:28.242Z,34.97
2023-05-04T08:44:33.430Z,39.50
2023-05-04T08:49:39.078Z,37.65
2023-05-04T08:54:45.832Z,36.20
2023-05-04T08:59:58.191Z,36.33
2023-05-04T09:05:04.256Z,41.47
2023-05-04T09:10:10.552Z,45.58
2023-05-04T09:15:18.889Z,38.00
2023-05-04T09:20:24.336Z,51.13
2023-05-04T09:30:35.076Z,37.33
2023-05-04T09:35:48.326Z,36.47
2023-05-04T09:40:54.032Z,32.03
2023-05-04T09:45:59.439Z,35.40
2023-05-04T09:51:09.641Z,40.65
2023-05-04T09:56:30.262Z,40.78
2023-05-04T10:01:35.876Z,42.70
2023-05-04T10:06:45.958Z,42.38
2023-05-04T10:11:52.116Z,34.72
2023-05-04T10:17:20.356Z,39.13
2023-05-04T10:22:48.293Z,39.08
2023-05-04T10:28:21.144Z,40.53
2023-05-04T10:33:27.702Z,34.28
2023-05-04T10:38:46.293Z,45.75
2023-05-04T10:43:54.871Z,32.33
2023-05-04T10:49:00.127Z,46.55
2023-05-04T10:54:06.704Z,37.60
2023-05-04T10:59:12.629Z,43.50
2023-05-04T11:04:24.811Z,42.72
2023-05-04T11:09:37.025Z,42.20
2023-05-04T11:14:44.210Z,44.25
2023-05-04T11:19:52.355Z,34.85
2023-05-04T11:25:00.653Z,44.70
2023-05-04T11:30:16.488Z,52.75
2023-05-04T11:35:26.465Z,42.70
2023-05-04T11:40:32.148Z,42.63
2023-05-04T11:45:39.178Z,46.28
2023-05-04T11:50:44.922Z,44.25
2023-05-04T11:55:50.531Z,46.58
2023-05-04T12:01:00.598Z,40.28
2023-05-04T12:06:06.228Z,38.97
2023-05-04T12:11:21.936Z,40.65
2023-05-04T12:21:37.495Z,40.47
2023-05-04T12:26:43.896Z,53.70
2023-05-04T12:31:49.725Z,45.70
2023-05-04T12:36:54.925Z,37.80
2023-05-04T12:42:01.154Z,46.42
2023-05-04T12:47:06.770Z,43.30
2023-05-04T12:52:12.511Z,40.45
2023-05-04T12:57:17.988Z,40.25
2023-05-04T13:07:28.793Z,35.88
2023-05-04T13:12:34.516Z,45.42
2023-05-04T13:17:46.484Z,40.95
2023-05-04T13:22:55.524Z,159.77
2023-05-04T13:28:02.225Z,200.63
2023-05-04T13:33:16.746Z,118.55
2023-05-04T13:38:26.669Z,106.28
2023-05-04T13:48:37.136Z,102.15
2023-05-04T13:58:47.624Z,180.10
2023-05-04T14:03:53.014Z,157.90
2023-05-04T14:14:03.111Z,110.18
2023-05-04T14:19:08.566Z,63.03
2023-05-04T14:29:18.338Z,90.50
2023-05-04T14:34:24.497Z,70.70
2023-05-04T14:39:29.726Z,143.98
2023-05-04T14:44:35.098Z,149.65
2023-05-04T14:49:46.646Z,69.60
2023-05-04T14:54:52.410Z,103.00
2023-05-04T14:59:57.819Z,101.93
2023-05-04T15:05:04.364Z,70.10
2023-05-04T15:10:10.817Z,59.13
2023-05-04T15:15:23.010Z,59.40
2023-05-04T15:20:28.702Z,46.58
2023-05-04T15:25:34.210Z,45.42
2023-05-04T15:30:43.573Z,48.05
2023-05-04T15:35:48.802Z,52.83
2023-05-04T15:40:54.786Z,47.50
2023-05-04T15:46:00.715Z,38.50
2023-05-04T15:51:14.421Z,43.28
2023-05-04T15:56:19.883Z,48.00
2023-05-04T16:06:42.235Z,37.78
2023-05-04T16:11:48.030Z,45.33
2023-05-04T16:21:58.577Z,32.80
2023-05-04T16:27:04.767Z,40.50
2023-05-04T16:32:11.030Z,38.10
2023-05-04T16:37:18.942Z,42.97
2023-05-04T16:42:24.157Z,39.67
2023-05-04T16:47:29.468Z,34.92
2023-05-04T16:52:34.848Z,39.15
2023-05-04T16:57:40.359Z,35.78
2023-05-04T17:02:46.843Z,39.50
2023-05-04T17:07:52.285Z,43.45
2023-05-04T17:12:58.226Z,30.90
2023-05-04T17:18:04.494Z,16.92
2023-05-04T17:23:09.992Z,34.22
2023-05-04T17:28:15.546Z,52.15
2023-05-04T17:38:25.792Z,44.78
2023-05-04T17:43:31.116Z,37.13
2023-05-04T17:48:37.900Z,40.80
2023-05-04T17:53:43.172Z,44.05
2023-05-04T17:58:48.681Z,49.53
2023-05-04T18:03:53.946Z,46.78
2023-05-04T18:14:03.822Z,44.60
2023-05-04T18:19:09.481Z,45.47
2023-05-04T18:24:14.583Z,44.55
2023-05-04T18:29:19.999Z,48.92
2023-05-04T18:39:29.632Z,46.95
2023-05-04T18:44:34.942Z,50.47
2023-05-04T18:49:39.938Z,46.30
2023-05-04T18:54:44.932Z,49.23
2023-05-04T18:59:49.892Z,48.23
2023-05-04T19:04:55.158Z,42.33
2023-05-04T19:10:00.207Z,40.40
2023-05-04T19:15:05.968Z,47.17
2023-05-04T19:20:11.745Z,45.88
2023-05-04T19:25:33.230Z,44.28
2023-05-04T19:30:40.383Z,41.53
2023-05-04T19:35:45.331Z,41.45
2023-05-04T19:40:50.834Z,45.50
2023-05-04T19:45:57.321Z,42.25
2023-05-04T19:51:02.862Z,41.38
2023-05-04T19:56:08.543Z,41.90
2023-05-04T20:01:14.075Z,47.13
2023-05-04T20:11:23.832Z,38.83
2023-05-04T20:16:29.161Z,45.53
2023-05-04T20:21:34.766Z,51.38
2023-05-04T20:31:45.082Z,34.45
2023-05-04T20:36:50.716Z,41.35
2023-05-04T20:47:00.520Z,45.03
2023-05-04T20:52:06.711Z,40.53
2023-05-04T20:57:12.375Z,43.78
2023-05-04T21:02:18.150Z,38.20
2023-05-04T21:12:29.514Z,41.43
2023-05-04T21:17:34.816Z,42.72
2023-05-04T21:22:39.863Z,38.53
2023-05-04T21:27:44.776Z,41.83
2023-05-04T21:32:50.541Z,40.40
2023-05-04T21:37:55.811Z,50.83
2023-05-04T21:48:07.750Z,47.07
2023-05-04T21:53:12.958Z,55.53
2023-05-04T21:58:18.790Z,46.55
2023-05-04T22:03:23.893Z,43.80
2023-05-04T22:08:30.460Z,54.92
2023-05-04T22:13:36.016Z,49.90
2023-05-04T22:18:41.199Z,47.42
2023-05-04T22:23:46.530Z,57.83
2023-05-04T22:28:51.884Z,46.07
2023-05-04T22:33:57.356Z,49.85
2023-05-04T22:39:02.718Z,58.88
2023-05-04T22:44:08.764Z,55.00
2023-05-04T22:49:14.093Z,57.75
2023-05-04T22:54:19.206Z,57.58
2023-05-04T22:59:24.502Z,50.45
2023-05-04T23:04:29.743Z,50.65
2023-05-04T23:09:34.996Z,51.83
2023-05-04T23:14:40.200Z,70.35
2023-05-04T23:19:45.547Z,73.20
2023-05-04T23:24:50.689Z,70.57
2023-05-04T23:29:55.935Z,50.15
2023-05-04T23:35:01.251Z,57.47
2023-05-04T23:45:13.171Z,53.47
2023-05-04T23:50:18.914Z,50.97
2023-05-04T23:55:24.073Z,54.75
